sensor_id;sensor_type;location;lat;lon;timestamp;temperature;humidity
38500;DHT22;24269;51.894;4.622;2022-12-29T00:01:55;11.80;99.90
38500;DHT22;24269;51.894;4.622;2022-12-29T00:04:21;11.80;99.90
38500;DHT22;24269;51.894;4.622;2022-12-29T00:06:47;11.80;99.90
38500;DHT22;24269;51.894;4.622;2022-12-29T00:09:15;11.80;99.90
38500;DHT22;24269;51.894;4.622;2022-12-29T00:11:41;11.80;99.90
38500;DHT22;24269;51.894;4.622;2022-12-29T00:14:09;11.90;99.90
38500;DHT22;24269;51.894;4.622;2022-12-29T00:16:54;11.90;99.90
38500;DHT22;24269;51.894;4.622;2022-12-29T00:19:19;11.90;99.90
38500;DHT22;24269;51.894;4.622;2022-12-29T00:22:04;12.00;99.90
38500;DHT22;24269;51.894;4.622;2022-12-29T00:24:48;12.00;99.90
38500;DHT22;24269;51.894;4.622;2022-12-29T00:27:33;12.00;99.90
38500;DHT22;24269;51.894;4.622;2022-12-29T00:30:22;12.00;99.90
38500;DHT22;24269;51.894;4.622;2022-12-29T00:36:01;12.00;99.90
38500;DHT22;24269;51.894;4.622;2022-12-29T00:38:28;12.00;99.90
38500;DHT22;24269;51.894;4.622;2022-12-29T00:41:13;11.90;99.90
38500;DHT22;24269;51.894;4.622;2022-12-29T00:43:57;11.90;99.90
38500;DHT22;24269;51.894;4.622;2022-12-29T00:46:36;12.00;99.90
38500;DHT22;24269;51.894;4.622;2022-12-29T00:49:02;12.00;99.90
38500;DHT22;24269;51.894;4.622;2022-12-29T00:51:47;11.90;99.90
38500;DHT22;24269;51.894;4.622;2022-12-29T00:54:13;11.80;99.90
38500;DHT22;24269;51.894;4.622;2022-12-29T00:56:39;11.70;99.90
38500;DHT22;24269;51.894;4.622;2022-12-29T00:59:07;11.50;99.90
38500;DHT22;24269;51.894;4.622;2022-12-29T01:01:34;11.40;99.90
38500;DHT22;24269;51.894;4.622;2022-12-29T01:04:00;11.40;99.90
38500;DHT22;24269;51.894;4.622;2022-12-29T01:06:26;11.30;99.90
38500;DHT22;24269;51.894;4.622;2022-12-29T01:08:52;11.20;99.90
38500;DHT22;24269;51.894;4.622;2022-12-29T01:11:36;11.20;99.90
38500;DHT22;24269;51.894;4.622;2022-12-29T01:14:02;11.20;99.90
38500;DHT22;24269;51.894;4.622;2022-12-29T01:16:29;11.10;99.90
38500;DHT22;24269;51.894;4.622;2022-12-29T01:18:54;11.10;99.90
38500;DHT22;24269;51.894;4.622;2022-12-29T01:21:20;11.10;99.90
38500;DHT22;24269;51.894;4.622;2022-12-29T01:23:45;11.10;99.90
38500;DHT22;24269;51.894;4.622;2022-12-29T01:26:13;11.10;99.90
38500;DHT22;24269;51.894;4.622;2022-12-29T01:28:39;11.10;99.90
38500;DHT22;24269;51.894;4.622;2022-12-29T01:31:09;11.10;99.90
38500;DHT22;24269;51.894;4.622;2022-12-29T01:33:35;11.10;99.90
38500;DHT22;24269;51.894;4.622;2022-12-29T01:36:05;11.10;99.90
38500;DHT22;24269;51.894;4.622;2022-12-29T01:38:32;11.10;99.90
38500;DHT22;24269;51.894;4.622;2022-12-29T01:40:58;11.20;99.90
38500;DHT22;24269;51.894;4.622;2022-12-29T01:43:44;11.20;99.90
38500;DHT22;24269;51.894;4.622;2022-12-29T01:51:37;11.10;99.90
38500;DHT22;24269;51.894;4.622;2022-12-29T01:54:12;11.10;99.90
38500;DHT22;24269;51.894;4.622;2022-12-29T01:56:39;11.10;99.90
38500;DHT22;24269;51.894;4.622;2022-12-29T01:59:08;11.00;99.90
38500;DHT22;24269;51.894;4.622;2022-12-29T02:01:36;10.90;99.90
38500;DHT22;24269;51.894;4.622;2022-12-29T02:04:02;10.90;99.90
38500;DHT22;24269;51.894;4.622;2022-12-29T02:06:33;10.90;99.90
38500;DHT22;24269;51.894;4.622;2022-12-29T02:09:00;10.90;99.90
38500;DHT22;24269;51.894;4.622;2022-12-29T02:11:28;11.00;99.90
38500;DHT22;24269;51.894;4.622;2022-12-29T02:13:54;11.00;99.90
38500;DHT22;24269;51.894;4.622;2022-12-29T02:37:59;11.00;99.90
38500;DHT22;24269;51.894;4.622;2022-12-29T02:43:30;10.90;99.90
38500;DHT22;24269;51.894;4.622;2022-12-29T02:46:03;10.80;99.90
38500;DHT22;24269;51.894;4.622;2022-12-29T02:48:40;10.80;99.90
38500;DHT22;24269;51.894;4.622;2022-12-29T02:51:12;10.80;99.90
38500;DHT22;24269;51.894;4.622;2022-12-29T02:53:40;10.80;99.90
38500;DHT22;24269;51.894;4.622;2022-12-29T02:56:25;10.80;99.90
38500;DHT22;24269;51.894;4.622;2022-12-29T02:58:50;10.90;99.90
38500;DHT22;24269;51.894;4.622;2022-12-29T03:01:45;10.90;99.90
38500;DHT22;24269;51.894;4.622;2022-12-29T03:04:54;10.80;99.90
38500;DHT22;24269;51.894;4.622;2022-12-29T03:07:30;10.90;99.90
38500;DHT22;24269;51.894;4.622;2022-12-29T03:13:01;10.80;99.90
38500;DHT22;24269;51.894;4.622;2022-12-29T03:19:05;10.70;99.90
38500;DHT22;24269;51.894;4.622;2022-12-29T03:21:44;10.70;99.90
38500;DHT22;24269;51.894;4.622;2022-12-29T03:24:38;10.60;99.90
38500;DHT22;24269;51.894;4.622;2022-12-29T03:27:06;10.60;99.90
38500;DHT22;24269;51.894;4.622;2022-12-29T03:29:40;10.60;99.90
38500;DHT22;24269;51.894;4.622;2022-12-29T03:32:09;10.60;99.90
38500;DHT22;24269;51.894;4.622;2022-12-29T03:34:37;10.60;99.90
38500;DHT22;24269;51.894;4.622;2022-12-29T03:37:14;10.60;99.90
38500;DHT22;24269;51.894;4.622;2022-12-29T03:39:41;10.50;99.90
38500;DHT22;24269;51.894;4.622;2022-12-29T03:42:11;10.50;99.90
38500;DHT22;24269;51.894;4.622;2022-12-29T03:44:41;10.50;99.90
38500;DHT22;24269;51.894;4.622;2022-12-29T03:47:07;10.50;99.90
38500;DHT22;24269;51.894;4.622;2022-12-29T03:49:33;10.50;99.90
38500;DHT22;24269;51.894;4.622;2022-12-29T03:51:59;10.50;99.90
38500;DHT22;24269;51.894;4.622;2022-12-29T03:54:24;10.60;99.90
38500;DHT22;24269;51.894;4.622;2022-12-29T03:56:50;10.60;99.90
38500;DHT22;24269;51.894;4.622;2022-12-29T03:59:16;10.70;99.90
38500;DHT22;24269;51.894;4.622;2022-12-29T04:01:42;10.70;99.90
38500;DHT22;24269;51.894;4.622;2022-12-29T04:04:07;10.70;99.90
38500;DHT22;24269;51.894;4.622;2022-12-29T04:06:34;10.80;99.90
38500;DHT22;24269;51.894;4.622;2022-12-29T04:09:00;10.80;99.90
38500;DHT22;24269;51.894;4.622;2022-12-29T04:11:25;10.80;99.90
38500;DHT22;24269;51.894;4.622;2022-12-29T04:13:51;10.80;99.90
38500;DHT22;24269;51.894;4.622;2022-12-29T04:16:17;10.60;99.90
38500;DHT22;24269;51.894;4.622;2022-12-29T04:18:42;10.50;99.90
38500;DHT22;24269;51.894;4.622;2022-12-29T04:21:08;10.40;99.90
38500;DHT22;24269;51.894;4.622;2022-12-29T04:23:36;10.30;99.90
38500;DHT22;24269;51.894;4.622;2022-12-29T04:26:02;10.10;99.90
38500;DHT22;24269;51.894;4.622;2022-12-29T04:28:28;10.10;99.90
38500;DHT22;24269;51.894;4.622;2022-12-29T04:30:54;10.00;99.90
38500;DHT22;24269;51.894;4.622;2022-12-29T04:33:20;10.00;99.90
38500;DHT22;24269;51.894;4.622;2022-12-29T04:35:47;9.90;99.90
38500;DHT22;24269;51.894;4.622;2022-12-29T04:38:13;9.90;99.90
38500;DHT22;24269;51.894;4.622;2022-12-29T04:40:40;9.80;99.90
38500;DHT22;24269;51.894;4.622;2022-12-29T04:43:06;9.80;99.90
38500;DHT22;24269;51.894;4.622;2022-12-29T04:45:32;9.80;99.90
38500;DHT22;24269;51.894;4.622;2022-12-29T04:47:57;9.80;99.90
38500;DHT22;24269;51.894;4.622;2022-12-29T04:50:23;9.80;99.90
38500;DHT22;24269;51.894;4.622;2022-12-29T04:52:48;9.90;99.90
38500;DHT22;24269;51.894;4.622;2022-12-29T04:55:14;9.90;99.90
38500;DHT22;24269;51.894;4.622;2022-12-29T04:57:40;9.90;99.90
38500;DHT22;24269;51.894;4.622;2022-12-29T05:00:06;10.00;99.90
38500;DHT22;24269;51.894;4.622;2022-12-29T05:02:32;10.00;99.90
38500;DHT22;24269;51.894;4.622;2022-12-29T05:04:57;10.10;99.90
38500;DHT22;24269;51.894;4.622;2022-12-29T05:07:23;10.10;99.90
38500;DHT22;24269;51.894;4.622;2022-12-29T05:09:50;10.10;99.90
38500;DHT22;24269;51.894;4.622;2022-12-29T05:12:15;10.10;99.90
38500;DHT22;24269;51.894;4.622;2022-12-29T05:14:41;10.10;99.90
38500;DHT22;24269;51.894;4.622;2022-12-29T05:17:07;10.10;99.90
38500;DHT22;24269;51.894;4.622;2022-12-29T05:19:33;10.10;99.90
38500;DHT22;24269;51.894;4.622;2022-12-29T05:21:58;10.20;99.90
38500;DHT22;24269;51.894;4.622;2022-12-29T05:24:24;10.20;99.90
38500;DHT22;24269;51.894;4.622;2022-12-29T05:26:49;10.20;99.90
38500;DHT22;24269;51.894;4.622;2022-12-29T05:29:15;10.20;99.90
38500;DHT22;24269;51.894;4.622;2022-12-29T05:31:41;10.20;99.90
38500;DHT22;24269;51.894;4.622;2022-12-29T05:34:06;10.30;99.90
38500;DHT22;24269;51.894;4.622;2022-12-29T05:36:32;10.30;99.90
38500;DHT22;24269;51.894;4.622;2022-12-29T05:38:57;10.30;99.90
38500;DHT22;24269;51.894;4.622;2022-12-29T05:41:23;10.30;99.90
38500;DHT22;24269;51.894;4.622;2022-12-29T05:43:49;10.30;99.90
38500;DHT22;24269;51.894;4.622;2022-12-29T05:46:14;10.30;99.90
38500;DHT22;24269;51.894;4.622;2022-12-29T05:48:40;10.30;99.90
38500;DHT22;24269;51.894;4.622;2022-12-29T05:51:05;10.20;99.90
38500;DHT22;24269;51.894;4.622;2022-12-29T05:53:31;10.20;99.90
38500;DHT22;24269;51.894;4.622;2022-12-29T05:55:57;10.20;99.90
38500;DHT22;24269;51.894;4.622;2022-12-29T05:58:22;10.20;99.90
38500;DHT22;24269;51.894;4.622;2022-12-29T06:00:48;10.30;99.90
38500;DHT22;24269;51.894;4.622;2022-12-29T06:03:13;10.30;99.90
38500;DHT22;24269;51.894;4.622;2022-12-29T06:05:39;10.20;99.90
38500;DHT22;24269;51.894;4.622;2022-12-29T06:08:05;10.20;99.90
38500;DHT22;24269;51.894;4.622;2022-12-29T06:10:30;10.10;99.90
38500;DHT22;24269;51.894;4.622;2022-12-29T06:12:56;10.10;99.90
38500;DHT22;24269;51.894;4.622;2022-12-29T06:15:21;10.10;99.90
38500;DHT22;24269;51.894;4.622;2022-12-29T06:17:47;10.00;99.90
38500;DHT22;24269;51.894;4.622;2022-12-29T06:20:13;10.10;99.90
38500;DHT22;24269;51.894;4.622;2022-12-29T06:22:39;10.10;99.90
38500;DHT22;24269;51.894;4.622;2022-12-29T06:25:04;10.10;99.90
38500;DHT22;24269;51.894;4.622;2022-12-29T06:27:31;10.10;99.90
38500;DHT22;24269;51.894;4.622;2022-12-29T06:29:56;10.10;99.90
38500;DHT22;24269;51.894;4.622;2022-12-29T06:32:22;10.10;99.90
38500;DHT22;24269;51.894;4.622;2022-12-29T06:34:47;10.00;99.90
38500;DHT22;24269;51.894;4.622;2022-12-29T06:37:13;10.00;99.90
38500;DHT22;24269;51.894;4.622;2022-12-29T06:39:39;9.90;99.90
38500;DHT22;24269;51.894;4.622;2022-12-29T06:42:05;9.80;99.90
38500;DHT22;24269;51.894;4.622;2022-12-29T06:44:31;9.70;99.90
38500;DHT22;24269;51.894;4.622;2022-12-29T06:46:57;9.60;99.90
38500;DHT22;24269;51.894;4.622;2022-12-29T06:49:23;9.50;99.90
38500;DHT22;24269;51.894;4.622;2022-12-29T06:51:48;9.50;99.90
38500;DHT22;24269;51.894;4.622;2022-12-29T06:54:14;9.40;99.90
38500;DHT22;24269;51.894;4.622;2022-12-29T06:56:39;9.30;99.90
38500;DHT22;24269;51.894;4.622;2022-12-29T06:59:05;9.20;99.90
38500;DHT22;24269;51.894;4.622;2022-12-29T07:01:31;9.20;99.90
38500;DHT22;24269;51.894;4.622;2022-12-29T07:03:57;9.20;99.90
38500;DHT22;24269;51.894;4.622;2022-12-29T07:06:23;9.20;99.90
38500;DHT22;24269;51.894;4.622;2022-12-29T07:08:48;9.30;99.90
38500;DHT22;24269;51.894;4.622;2022-12-29T07:11:14;9.30;99.90
38500;DHT22;24269;51.894;4.622;2022-12-29T07:13:40;9.30;99.90
38500;DHT22;24269;51.894;4.622;2022-12-29T07:16:09;9.30;99.90
38500;DHT22;24269;51.894;4.622;2022-12-29T07:18:36;9.30;99.90
38500;DHT22;24269;51.894;4.622;2022-12-29T07:21:02;9.30;99.90
38500;DHT22;24269;51.894;4.622;2022-12-29T07:23:28;9.40;99.90
38500;DHT22;24269;51.894;4.622;2022-12-29T07:26:08;9.40;99.90
38500;DHT22;24269;51.894;4.622;2022-12-29T07:28:35;9.50;99.90
38500;DHT22;24269;51.894;4.622;2022-12-29T07:31:03;9.50;99.90
38500;DHT22;24269;51.894;4.622;2022-12-29T07:33:30;9.50;99.90
38500;DHT22;24269;51.894;4.622;2022-12-29T07:35:56;9.50;99.90
38500;DHT22;24269;51.894;4.622;2022-12-29T07:38:21;9.60;99.90
38500;DHT22;24269;51.894;4.622;2022-12-29T07:40:47;9.50;99.90
38500;DHT22;24269;51.894;4.622;2022-12-29T07:43:12;9.70;99.90
38500;DHT22;24269;51.894;4.622;2022-12-29T07:45:38;9.70;99.90
38500;DHT22;24269;51.894;4.622;2022-12-29T07:48:05;9.80;99.90
38500;DHT22;24269;51.894;4.622;2022-12-29T07:50:33;9.80;99.90
38500;DHT22;24269;51.894;4.622;2022-12-29T07:52:59;9.80;99.90
38500;DHT22;24269;51.894;4.622;2022-12-29T07:55:24;9.80;99.90
38500;DHT22;24269;51.894;4.622;2022-12-29T07:57:53;9.90;99.90
38500;DHT22;24269;51.894;4.622;2022-12-29T08:00:19;9.90;99.90
38500;DHT22;24269;51.894;4.622;2022-12-29T08:02:45;10.00;99.90
38500;DHT22;24269;51.894;4.622;2022-12-29T08:05:11;10.00;99.90
38500;DHT22;24269;51.894;4.622;2022-12-29T08:07:36;10.00;99.90
38500;DHT22;24269;51.894;4.622;2022-12-29T08:10:02;10.10;99.90
38500;DHT22;24269;51.894;4.622;2022-12-29T08:12:28;10.10;99.90
38500;DHT22;24269;51.894;4.622;2022-12-29T08:14:54;10.10;99.90
38500;DHT22;24269;51.894;4.622;2022-12-29T08:17:19;10.10;99.90
38500;DHT22;24269;51.894;4.622;2022-12-29T08:19:45;10.10;99.90
38500;DHT22;24269;51.894;4.622;2022-12-29T08:22:11;10.10;99.90
38500;DHT22;24269;51.894;4.622;2022-12-29T08:24:36;10.10;99.90
38500;DHT22;24269;51.894;4.622;2022-12-29T08:27:02;10.10;99.90
38500;DHT22;24269;51.894;4.622;2022-12-29T08:29:27;10.00;99.90
38500;DHT22;24269;51.894;4.622;2022-12-29T08:31:53;10.00;99.90
38500;DHT22;24269;51.894;4.622;2022-12-29T08:34:19;10.00;99.90
38500;DHT22;24269;51.894;4.622;2022-12-29T08:36:44;10.00;99.90
38500;DHT22;24269;51.894;4.622;2022-12-29T08:39:10;9.90;99.90
38500;DHT22;24269;51.894;4.622;2022-12-29T08:41:35;9.90;99.90
38500;DHT22;24269;51.894;4.622;2022-12-29T08:44:01;9.80;99.90
38500;DHT22;24269;51.894;4.622;2022-12-29T08:46:27;9.80;99.90
38500;DHT22;24269;51.894;4.622;2022-12-29T08:48:53;9.80;99.90
38500;DHT22;24269;51.894;4.622;2022-12-29T08:51:19;9.80;99.90
38500;DHT22;24269;51.894;4.622;2022-12-29T08:53:44;9.70;99.90
38500;DHT22;24269;51.894;4.622;2022-12-29T08:56:10;9.70;99.90
38500;DHT22;24269;51.894;4.622;2022-12-29T08:58:37;9.70;99.90
38500;DHT22;24269;51.894;4.622;2022-12-29T09:01:02;9.60;99.90
38500;DHT22;24269;51.894;4.622;2022-12-29T09:03:28;9.60;99.90
38500;DHT22;24269;51.894;4.622;2022-12-29T09:05:54;9.60;99.90
38500;DHT22;24269;51.894;4.622;2022-12-29T09:08:21;9.60;99.90
38500;DHT22;24269;51.894;4.622;2022-12-29T09:10:47;9.50;99.90
38500;DHT22;24269;51.894;4.622;2022-12-29T09:13:14;9.50;99.90
38500;DHT22;24269;51.894;4.622;2022-12-29T09:15:40;9.40;99.90
38500;DHT22;24269;51.894;4.622;2022-12-29T09:18:07;9.40;99.90
38500;DHT22;24269;51.894;4.622;2022-12-29T09:20:33;9.40;99.90
38500;DHT22;24269;51.894;4.622;2022-12-29T09:22:59;9.40;99.90
38500;DHT22;24269;51.894;4.622;2022-12-29T09:25:25;9.40;99.90
38500;DHT22;24269;51.894;4.622;2022-12-29T09:27:51;9.50;99.90
38500;DHT22;24269;51.894;4.622;2022-12-29T09:30:20;9.50;99.90
38500;DHT22;24269;51.894;4.622;2022-12-29T09:32:46;9.50;99.90
38500;DHT22;24269;51.894;4.622;2022-12-29T09:35:14;9.50;99.90
38500;DHT22;24269;51.894;4.622;2022-12-29T09:37:40;9.50;99.90
38500;DHT22;24269;51.894;4.622;2022-12-29T09:40:06;9.60;99.90
38500;DHT22;24269;51.894;4.622;2022-12-29T09:42:40;9.60;99.90
38500;DHT22;24269;51.894;4.622;2022-12-29T09:45:25;9.60;99.90
38500;DHT22;24269;51.894;4.622;2022-12-29T09:47:54;9.60;99.90
38500;DHT22;24269;51.894;4.622;2022-12-29T09:50:32;9.70;99.90
38500;DHT22;24269;51.894;4.622;2022-12-29T09:53:08;9.70;99.90
38500;DHT22;24269;51.894;4.622;2022-12-29T09:55:53;9.70;99.90
38500;DHT22;24269;51.894;4.622;2022-12-29T09:58:47;9.70;99.90
38500;DHT22;24269;51.894;4.622;2022-12-29T10:01:41;9.70;99.90
38500;DHT22;24269;51.894;4.622;2022-12-29T10:04:09;9.70;99.90
38500;DHT22;24269;51.894;4.622;2022-12-29T10:06:46;9.70;99.90
38500;DHT22;24269;51.894;4.622;2022-12-29T10:15:33;9.70;99.90
38500;DHT22;24269;51.894;4.622;2022-12-29T10:23:53;9.80;99.90
38500;DHT22;24269;51.894;4.622;2022-12-29T10:26:28;9.80;99.90
38500;DHT22;24269;51.894;4.622;2022-12-29T10:29:08;9.80;99.90
38500;DHT22;24269;51.894;4.622;2022-12-29T10:31:43;9.80;99.90
38500;DHT22;24269;51.894;4.622;2022-12-29T10:34:26;9.80;99.90
38500;DHT22;24269;51.894;4.622;2022-12-29T10:39:49;9.90;99.90
38500;DHT22;24269;51.894;4.622;2022-12-29T10:42:28;9.90;99.90
38500;DHT22;24269;51.894;4.622;2022-12-29T10:44:59;9.90;99.90
38500;DHT22;24269;51.894;4.622;2022-12-29T10:47:28;9.90;99.90
38500;DHT22;24269;51.894;4.622;2022-12-29T10:49:54;9.90;99.90
38500;DHT22;24269;51.894;4.622;2022-12-29T10:52:22;9.90;99.90
38500;DHT22;24269;51.894;4.622;2022-12-29T10:54:49;9.80;99.90
38500;DHT22;24269;51.894;4.622;2022-12-29T10:57:54;9.80;99.90
38500;DHT22;24269;51.894;4.622;2022-12-29T11:00:22;9.80;99.90
38500;DHT22;24269;51.894;4.622;2022-12-29T11:03:23;9.80;99.90
38500;DHT22;24269;51.894;4.622;2022-12-29T11:05:59;9.80;99.90
38500;DHT22;24269;51.894;4.622;2022-12-29T11:08:30;10.00;99.90
38500;DHT22;24269;51.894;4.622;2022-12-29T11:11:01;10.10;99.90
38500;DHT22;24269;51.894;4.622;2022-12-29T11:13:33;10.10;99.90
38500;DHT22;24269;51.894;4.622;2022-12-29T11:15:59;10.20;99.90
38500;DHT22;24269;51.894;4.622;2022-12-29T11:18:34;10.20;99.90
38500;DHT22;24269;51.894;4.622;2022-12-29T11:21:05;10.20;99.90
38500;DHT22;24269;51.894;4.622;2022-12-29T11:23:32;10.30;99.90
38500;DHT22;24269;51.894;4.622;2022-12-29T11:28:39;10.50;99.90
38500;DHT22;24269;51.894;4.622;2022-12-29T11:31:07;10.70;99.90
38500;DHT22;24269;51.894;4.622;2022-12-29T11:33:35;10.80;99.90
38500;DHT22;24269;51.894;4.622;2022-12-29T11:38:39;10.70;99.90
38500;DHT22;24269;51.894;4.622;2022-12-29T11:41:06;10.70;99.90
38500;DHT22;24269;51.894;4.622;2022-12-29T11:43:41;10.80;99.90
38500;DHT22;24269;51.894;4.622;2022-12-29T11:46:16;10.80;99.90
38500;DHT22;24269;51.894;4.622;2022-12-29T11:48:43;10.80;99.90
38500;DHT22;24269;51.894;4.622;2022-12-29T11:51:10;10.90;99.90
38500;DHT22;24269;51.894;4.622;2022-12-29T11:53:43;10.90;99.90
38500;DHT22;24269;51.894;4.622;2022-12-29T11:56:15;10.80;99.90
38500;DHT22;24269;51.894;4.622;2022-12-29T11:58:41;10.90;99.90
38500;DHT22;24269;51.894;4.622;2022-12-29T12:01:34;11.00;99.90
38500;DHT22;24269;51.894;4.622;2022-12-29T12:04:03;11.00;99.90
38500;DHT22;24269;51.894;4.622;2022-12-29T12:06:32;11.00;99.90
38500;DHT22;24269;51.894;4.622;2022-12-29T12:09:04;11.00;99.90
38500;DHT22;24269;51.894;4.622;2022-12-29T12:11:32;11.00;99.90
38500;DHT22;24269;51.894;4.622;2022-12-29T12:16:35;11.00;99.90
38500;DHT22;24269;51.894;4.622;2022-12-29T12:19:19;10.90;99.90
38500;DHT22;24269;51.894;4.622;2022-12-29T12:21:50;10.90;99.90
38500;DHT22;24269;51.894;4.622;2022-12-29T12:24:41;10.90;99.90
38500;DHT22;24269;51.894;4.622;2022-12-29T12:27:16;10.90;99.90
38500;DHT22;24269;51.894;4.622;2022-12-29T12:30:00;10.80;99.90
38500;DHT22;24269;51.894;4.622;2022-12-29T12:35:23;10.80;99.90
38500;DHT22;24269;51.894;4.622;2022-12-29T12:52:09;10.80;99.90
38500;DHT22;24269;51.894;4.622;2022-12-29T13:00:11;10.80;99.90
38500;DHT22;24269;51.894;4.622;2022-12-29T13:03:03;10.80;99.90
38500;DHT22;24269;51.894;4.622;2022-12-29T13:10:50;10.80;99.90
38500;DHT22;24269;51.894;4.622;2022-12-29T13:13:38;10.70;99.90
38500;DHT22;24269;51.894;4.622;2022-12-29T13:19:02;10.70;99.90
38500;DHT22;24269;51.894;4.622;2022-12-29T13:37:34;10.10;99.90
38500;DHT22;24269;51.894;4.622;2022-12-29T13:40:13;9.90;99.90
38500;DHT22;24269;51.894;4.622;2022-12-29T13:42:41;9.80;99.90
38500;DHT22;24269;51.894;4.622;2022-12-29T13:45:25;9.80;99.90
38500;DHT22;24269;51.894;4.622;2022-12-29T13:48:03;9.70;99.90
38500;DHT22;24269;51.894;4.622;2022-12-29T13:50:35;9.60;99.90
38500;DHT22;24269;51.894;4.622;2022-12-29T14:03:52;9.40;99.90
38500;DHT22;24269;51.894;4.622;2022-12-29T14:06:27;9.40;99.90
38500;DHT22;24269;51.894;4.622;2022-12-29T14:08:56;9.40;99.90
38500;DHT22;24269;51.894;4.622;2022-12-29T14:11:29;9.40;99.90
38500;DHT22;24269;51.894;4.622;2022-12-29T14:13:56;9.40;99.90
38500;DHT22;24269;51.894;4.622;2022-12-29T14:16:33;9.40;99.90
38500;DHT22;24269;51.894;4.622;2022-12-29T14:22:00;9.50;99.90
38500;DHT22;24269;51.894;4.622;2022-12-29T14:34:53;9.50;99.90
38500;DHT22;24269;51.894;4.622;2022-12-29T14:37:33;9.60;99.90
38500;DHT22;24269;51.894;4.622;2022-12-29T14:40:18;9.60;99.90
38500;DHT22;24269;51.894;4.622;2022-12-29T14:42:45;9.60;99.90
38500;DHT22;24269;51.894;4.622;2022-12-29T14:47:45;9.60;99.90
38500;DHT22;24269;51.894;4.622;2022-12-29T14:53:03;9.60;99.90
38500;DHT22;24269;51.894;4.622;2022-12-29T14:55:44;9.60;99.90
38500;DHT22;24269;51.894;4.622;2022-12-29T14:58:16;9.60;99.90
38500;DHT22;24269;51.894;4.622;2022-12-29T15:00:44;9.60;99.90
38500;DHT22;24269;51.894;4.622;2022-12-29T15:03:30;9.60;99.90
38500;DHT22;24269;51.894;4.622;2022-12-29T15:06:03;9.50;99.90
38500;DHT22;24269;51.894;4.622;2022-12-29T15:08:35;9.50;99.90
38500;DHT22;24269;51.894;4.622;2022-12-29T15:13:39;9.50;99.90
38500;DHT22;24269;51.894;4.622;2022-12-29T15:16:25;9.50;99.90
38500;DHT22;24269;51.894;4.622;2022-12-29T15:18:52;9.50;99.90
38500;DHT22;24269;51.894;4.622;2022-12-29T15:21:42;9.50;99.90
38500;DHT22;24269;51.894;4.622;2022-12-29T15:24:10;9.50;99.90
38500;DHT22;24269;51.894;4.622;2022-12-29T15:26:38;9.50;99.90
38500;DHT22;24269;51.894;4.622;2022-12-29T15:29:05;9.50;99.90
38500;DHT22;24269;51.894;4.622;2022-12-29T15:31:30;9.40;99.90
38500;DHT22;24269;51.894;4.622;2022-12-29T15:34:22;9.50;99.90
38500;DHT22;24269;51.894;4.622;2022-12-29T15:36:50;9.50;99.90
38500;DHT22;24269;51.894;4.622;2022-12-29T15:39:34;9.40;99.90
38500;DHT22;24269;51.894;4.622;2022-12-29T15:42:06;9.40;99.90
38500;DHT22;24269;51.894;4.622;2022-12-29T15:44:39;9.40;99.90
38500;DHT22;24269;51.894;4.622;2022-12-29T15:47:17;9.40;99.90
38500;DHT22;24269;51.894;4.622;2022-12-29T15:50:12;9.40;99.90
38500;DHT22;24269;51.894;4.622;2022-12-29T15:52:40;9.30;99.90
38500;DHT22;24269;51.894;4.622;2022-12-29T15:55:09;9.30;99.90
38500;DHT22;24269;51.894;4.622;2022-12-29T15:57:43;9.30;99.90
38500;DHT22;24269;51.894;4.622;2022-12-29T16:00:30;9.20;99.90
38500;DHT22;24269;51.894;4.622;2022-12-29T16:02:58;9.10;99.90
38500;DHT22;24269;51.894;4.622;2022-12-29T16:05:24;9.10;99.90
38500;DHT22;24269;51.894;4.622;2022-12-29T16:07:58;9.00;99.90
38500;DHT22;24269;51.894;4.622;2022-12-29T16:10:50;9.00;99.90
38500;DHT22;24269;51.894;4.622;2022-12-29T16:13:37;9.00;99.90
38500;DHT22;24269;51.894;4.622;2022-12-29T16:16:18;8.90;99.90
38500;DHT22;24269;51.894;4.622;2022-12-29T16:18:44;8.90;99.90
38500;DHT22;24269;51.894;4.622;2022-12-29T16:21:25;8.90;99.90
38500;DHT22;24269;51.894;4.622;2022-12-29T16:23:54;8.80;99.90
38500;DHT22;24269;51.894;4.622;2022-12-29T16:26:22;8.80;99.90
38500;DHT22;24269;51.894;4.622;2022-12-29T16:28:50;8.80;99.90
38500;DHT22;24269;51.894;4.622;2022-12-29T16:31:34;8.80;99.90
38500;DHT22;24269;51.894;4.622;2022-12-29T16:34:12;8.80;99.90
38500;DHT22;24269;51.894;4.622;2022-12-29T16:36:59;8.80;99.90
38500;DHT22;24269;51.894;4.622;2022-12-29T16:39:39;8.70;99.90
38500;DHT22;24269;51.894;4.622;2022-12-29T16:48:29;8.60;99.90
38500;DHT22;24269;51.894;4.622;2022-12-29T16:51:35;8.60;99.90
38500;DHT22;24269;51.894;4.622;2022-12-29T16:54:02;8.60;99.90
38500;DHT22;24269;51.894;4.622;2022-12-29T16:56:33;8.50;99.90
38500;DHT22;24269;51.894;4.622;2022-12-29T17:01:30;8.50;99.90
38500;DHT22;24269;51.894;4.622;2022-12-29T17:04:05;8.40;99.90
38500;DHT22;24269;51.894;4.622;2022-12-29T17:06:32;8.40;99.90
38500;DHT22;24269;51.894;4.622;2022-12-29T17:08:58;8.40;99.90
38500;DHT22;24269;51.894;4.622;2022-12-29T17:11:28;8.50;99.90
38500;DHT22;24269;51.894;4.622;2022-12-29T17:14:19;8.40;99.90
38500;DHT22;24269;51.894;4.622;2022-12-29T17:16:46;8.30;99.90
38500;DHT22;24269;51.894;4.622;2022-12-29T17:19:20;8.30;99.90
38500;DHT22;24269;51.894;4.622;2022-12-29T17:21:48;8.30;99.90
38500;DHT22;24269;51.894;4.622;2022-12-29T17:24:16;8.30;99.90
38500;DHT22;24269;51.894;4.622;2022-12-29T17:26:47;8.30;99.90
38500;DHT22;24269;51.894;4.622;2022-12-29T17:29:29;8.30;99.90
38500;DHT22;24269;51.894;4.622;2022-12-29T17:31:55;8.30;99.90
38500;DHT22;24269;51.894;4.622;2022-12-29T17:34:21;8.30;99.90
38500;DHT22;24269;51.894;4.622;2022-12-29T17:36:47;8.30;99.90
38500;DHT22;24269;51.894;4.622;2022-12-29T17:39:13;8.40;99.90
38500;DHT22;24269;51.894;4.622;2022-12-29T17:41:38;8.40;99.90
38500;DHT22;24269;51.894;4.622;2022-12-29T17:44:05;8.50;99.90
38500;DHT22;24269;51.894;4.622;2022-12-29T17:46:32;8.50;99.90
38500;DHT22;24269;51.894;4.622;2022-12-29T17:48:58;8.50;99.90
38500;DHT22;24269;51.894;4.622;2022-12-29T17:51:24;8.50;99.90
38500;DHT22;24269;51.894;4.622;2022-12-29T17:53:49;8.50;99.90
38500;DHT22;24269;51.894;4.622;2022-12-29T17:56:17;8.50;99.90
38500;DHT22;24269;51.894;4.622;2022-12-29T17:58:42;8.40;99.90
38500;DHT22;24269;51.894;4.622;2022-12-29T18:01:10;8.40;99.90
38500;DHT22;24269;51.894;4.622;2022-12-29T18:03:38;8.40;99.90
38500;DHT22;24269;51.894;4.622;2022-12-29T18:06:06;8.30;99.90
38500;DHT22;24269;51.894;4.622;2022-12-29T18:08:37;8.30;99.90
38500;DHT22;24269;51.894;4.622;2022-12-29T18:11:04;8.20;99.90
38500;DHT22;24269;51.894;4.622;2022-12-29T18:13:31;8.20;99.90
38500;DHT22;24269;51.894;4.622;2022-12-29T18:15:59;8.20;99.90
38500;DHT22;24269;51.894;4.622;2022-12-29T18:18:26;8.20;99.90
38500;DHT22;24269;51.894;4.622;2022-12-29T18:20:54;8.10;99.90
38500;DHT22;24269;51.894;4.622;2022-12-29T18:23:31;8.20;99.90
38500;DHT22;24269;51.894;4.622;2022-12-29T18:26:01;8.20;99.90
38500;DHT22;24269;51.894;4.622;2022-12-29T18:28:27;8.20;99.90